ITY1412 LIMF-LIRF
Flight info
| Callsign | ITY1412 |
|---|---|
| Flight time | 0h 57m |
| Altitude | 37000 |
| Route | LAGEN L50 ANAKI DCT BAKRO DCT ELB DCT ELKAP |
| Aircraft | A20N/M-SDE2E3FGHIJ1RWXY/LB1 |
Departure
| Time | 2026-05-01 07:26 |
|---|---|
| Airport | Turin Airport (LIMF) |
Arrival
| Time | 2026-05-01 08:24 |
|---|---|
| Airport | Rome–Fiumicino Leonardo da Vinci International Airport (LIRF) |
| Time | Latitude | Longitude | Altitude | Speed | Heading |
|---|---|---|---|---|---|
| 2026-05-01 07:23 | 45.18894 | 7.64643 | 946 ft | 22 kts | 183° |
| 2026-05-01 07:23 | 45.18662 | 7.64647 | 941 ft | 2 kts | 152° |
| 2026-05-01 07:24 | 45.18661 | 7.64648 | 941 ft | 0 kts | 151° |
| 2026-05-01 07:25 | 45.18641 | 7.64666 | 940 ft | 6 kts | 139° |
| 2026-05-01 07:25 | 45.18625 | 7.64759 | 937 ft | 12 kts | 81° |
| 2026-05-01 07:25 | 45.18659 | 7.64868 | 936 ft | 12 kts | 23° |
| 2026-05-01 07:25 | 45.18779 | 7.64879 | 938 ft | 38 kts | 2° |
| 2026-05-01 07:26 | 45.19323 | 7.64907 | 952 ft | 116 kts | 3° |
| 2026-05-01 07:26 | 45.20336 | 7.64981 | 1097 ft | 166 kts | 2° |
| 2026-05-01 07:26 | 45.21487 | 7.65071 | 1849 ft | 167 kts | 3° |
| 2026-05-01 07:26 | 45.22617 | 7.65148 | 2667 ft | 167 kts | 2° |
| 2026-05-01 07:27 | 45.23766 | 7.65219 | 3356 ft | 170 kts | 3° |
| 2026-05-01 07:27 | 45.24959 | 7.65284 | 4036 ft | 173 kts | 2° |
| 2026-05-01 07:27 | 45.26158 | 7.65342 | 4679 ft | 179 kts | 8° |
| 2026-05-01 07:27 | 45.27303 | 7.66110 | 5118 ft | 196 kts | 48° |
| 2026-05-01 07:28 | 45.27817 | 7.67917 | 5597 ft | 211 kts | 91° |
| 2026-05-01 07:28 | 45.27314 | 7.69934 | 6120 ft | 228 kts | 121° |
| 2026-05-01 07:28 | 45.26534 | 7.71999 | 6651 ft | 248 kts | 114° |
| 2026-05-01 07:28 | 45.25900 | 7.74340 | 7253 ft | 264 kts | 109° |
| 2026-05-01 07:29 | 45.25388 | 7.76905 | 7905 ft | 277 kts | 102° |
| 2026-05-01 07:29 | 45.24930 | 7.79586 | 8762 ft | 283 kts | 109° |
| 2026-05-01 07:29 | 45.24077 | 7.82092 | 9657 ft | 286 kts | 123° |
| 2026-05-01 07:29 | 45.22928 | 7.84378 | 10522 ft | 290 kts | 126° |
| 2026-05-01 07:30 | 45.21715 | 7.86722 | 11192 ft | 301 kts | 125° |
| 2026-05-01 07:30 | 45.20483 | 7.89171 | 11745 ft | 314 kts | 124° |
| 2026-05-01 07:30 | 45.19225 | 7.91687 | 12530 ft | 318 kts | 124° |
| 2026-05-01 07:30 | 45.17942 | 7.94252 | 13361 ft | 321 kts | 124° |
| 2026-05-01 07:31 | 45.16633 | 7.96824 | 14163 ft | 324 kts | 127° |
| 2026-05-01 07:31 | 45.10532 | 8.01074 | 16334 ft | 343 kts | 156° |
| 2026-05-01 07:32 | 45.06585 | 8.04824 | 17666 ft | 346 kts | 137° |
| 2026-05-01 07:32 | 45.04709 | 8.06950 | 18307 ft | 351 kts | 139° |
| 2026-05-01 07:33 | 45.00732 | 8.11189 | 19454 ft | 364 kts | 141° |
| 2026-05-01 07:33 | 44.98688 | 8.13270 | 20065 ft | 369 kts | 141° |
| 2026-05-01 07:33 | 44.94442 | 8.17522 | 21275 ft | 377 kts | 142° |
| 2026-05-01 07:34 | 44.92292 | 8.19663 | 21860 ft | 381 kts | 142° |
| 2026-05-01 07:34 | 44.87938 | 8.24043 | 22991 ft | 390 kts | 141° |
| 2026-05-01 07:34 | 44.85780 | 8.26305 | 23529 ft | 394 kts | 141° |
| 2026-05-01 07:35 | 44.83575 | 8.28627 | 24071 ft | 398 kts | 141° |
| 2026-05-01 07:35 | 44.81362 | 8.30951 | 24601 ft | 401 kts | 141° |
| 2026-05-01 07:35 | 44.79096 | 8.33323 | 25126 ft | 405 kts | 141° |
| 2026-05-01 07:35 | 44.76857 | 8.35661 | 25632 ft | 408 kts | 141° |
| 2026-05-01 07:36 | 44.74555 | 8.38064 | 26130 ft | 412 kts | 141° |
| 2026-05-01 07:36 | 44.72239 | 8.40476 | 26617 ft | 415 kts | 141° |
| 2026-05-01 07:36 | 44.69929 | 8.42881 | 27086 ft | 419 kts | 141° |
| 2026-05-01 07:36 | 44.67591 | 8.45312 | 27545 ft | 422 kts | 140° |
| 2026-05-01 07:37 | 44.62849 | 8.50235 | 28404 ft | 428 kts | 140° |
| 2026-05-01 07:37 | 44.60455 | 8.52717 | 28803 ft | 431 kts | 140° |
| 2026-05-01 07:37 | 44.58020 | 8.55238 | 29196 ft | 434 kts | 140° |
| 2026-05-01 07:38 | 44.55600 | 8.57744 | 29577 ft | 437 kts | 140° |
| 2026-05-01 07:38 | 44.53139 | 8.60287 | 29936 ft | 439 kts | 140° |
| 2026-05-01 07:38 | 44.48219 | 8.65365 | 30604 ft | 445 kts | 141° |
| 2026-05-01 07:39 | 44.45723 | 8.67938 | 30909 ft | 448 kts | 141° |
| 2026-05-01 07:39 | 44.43205 | 8.70530 | 31211 ft | 450 kts | 141° |
| 2026-05-01 07:39 | 44.38124 | 8.75744 | 31867 ft | 453 kts | 142° |
| 2026-05-01 07:40 | 44.35593 | 8.78337 | 32253 ft | 452 kts | 142° |
| 2026-05-01 07:40 | 44.33082 | 8.80908 | 32627 ft | 452 kts | 142° |
| 2026-05-01 07:40 | 44.30555 | 8.83492 | 32976 ft | 452 kts | 142° |
| 2026-05-01 07:40 | 44.28005 | 8.86097 | 33317 ft | 452 kts | 142° |
| 2026-05-01 07:41 | 44.25495 | 8.88661 | 33666 ft | 452 kts | 142° |
| 2026-05-01 07:41 | 44.22959 | 8.91247 | 34002 ft | 452 kts | 142° |
| 2026-05-01 07:41 | 44.17882 | 8.96417 | 34640 ft | 452 kts | 143° |
| 2026-05-01 07:42 | 44.15378 | 8.98962 | 34924 ft | 452 kts | 143° |
| 2026-05-01 07:42 | 44.12839 | 9.01541 | 35205 ft | 453 kts | 143° |
| 2026-05-01 07:42 | 44.10293 | 9.04124 | 35487 ft | 453 kts | 143° |
| 2026-05-01 07:42 | 44.07734 | 9.06717 | 35739 ft | 454 kts | 143° |
| 2026-05-01 07:43 | 44.05188 | 9.09294 | 35952 ft | 456 kts | 143° |
| 2026-05-01 07:43 | 44.02625 | 9.11885 | 36152 ft | 458 kts | 143° |
| 2026-05-01 07:43 | 43.97478 | 9.17092 | 36500 ft | 463 kts | 144° |
| 2026-05-01 07:44 | 43.92263 | 9.22345 | 36747 ft | 469 kts | 145° |
| 2026-05-01 07:44 | 43.86991 | 9.27634 | 37100 ft | 472 kts | 145° |
| 2026-05-01 07:45 | 43.84323 | 9.30308 | 37257 ft | 474 kts | 145° |
| 2026-05-01 07:45 | 43.81668 | 9.32967 | 37309 ft | 476 kts | 145° |
| 2026-05-01 07:45 | 43.76312 | 9.38325 | 37316 ft | 476 kts | 145° |
| 2026-05-01 07:46 | 43.70939 | 9.43686 | 37318 ft | 476 kts | 144° |
| 2026-05-01 07:47 | 43.62933 | 9.51658 | 37318 ft | 477 kts | 145° |
| 2026-05-01 07:47 | 43.57561 | 9.56991 | 37318 ft | 478 kts | 145° |
| 2026-05-01 07:48 | 43.49488 | 9.64983 | 37318 ft | 478 kts | 145° |
| 2026-05-01 07:48 | 43.44071 | 9.70333 | 37318 ft | 478 kts | 146° |
| 2026-05-01 07:49 | 43.36003 | 9.78283 | 37318 ft | 478 kts | 146° |
| 2026-05-01 07:50 | 43.30606 | 9.83586 | 37318 ft | 478 kts | 146° |
| 2026-05-01 07:50 | 43.22521 | 9.91500 | 37318 ft | 479 kts | 146° |
| 2026-05-01 07:51 | 43.17090 | 9.96813 | 37318 ft | 479 kts | 146° |
| 2026-05-01 07:52 | 43.08965 | 10.04756 | 37314 ft | 481 kts | 146° |
| 2026-05-01 07:52 | 43.03541 | 10.10047 | 37306 ft | 482 kts | 146° |
| 2026-05-01 07:53 | 42.95334 | 10.18030 | 37296 ft | 484 kts | 146° |
| 2026-05-01 07:53 | 42.89904 | 10.23297 | 37293 ft | 484 kts | 147° |
| 2026-05-01 07:55 | 42.76647 | 10.37318 | 36843 ft | 489 kts | 129° |
| 2026-05-01 07:55 | 42.73360 | 10.45419 | 35045 ft | 499 kts | 105° |
| 2026-05-01 07:56 | 42.72121 | 10.59233 | 32956 ft | 493 kts | 92° |
| 2026-05-01 07:56 | 42.70282 | 10.68228 | 31615 ft | 497 kts | 114° |
| 2026-05-01 07:57 | 42.68607 | 10.72352 | 31038 ft | 494 kts | 120° |
| 2026-05-01 07:57 | 42.64984 | 10.80099 | 30154 ft | 481 kts | 121° |
| 2026-05-01 07:58 | 42.61454 | 10.87626 | 29305 ft | 468 kts | 120° |
| 2026-05-01 07:58 | 42.58062 | 10.94957 | 28494 ft | 455 kts | 120° |
| 2026-05-01 07:59 | 42.54741 | 11.02153 | 27665 ft | 444 kts | 120° |
| 2026-05-01 07:59 | 42.51502 | 11.09161 | 26712 ft | 438 kts | 120° |
| 2026-05-01 08:00 | 42.45166 | 11.22943 | 24827 ft | 424 kts | 114° |
| 2026-05-01 08:01 | 42.42979 | 11.34154 | 23442 ft | 405 kts | 93° |
| 2026-05-01 08:01 | 42.42606 | 11.37881 | 22980 ft | 403 kts | 93° |
| 2026-05-01 08:01 | 42.42222 | 11.41612 | 22530 ft | 400 kts | 93° |
| 2026-05-01 08:02 | 42.41411 | 11.48984 | 21636 ft | 394 kts | 94° |
| 2026-05-01 08:02 | 42.40993 | 11.52661 | 21231 ft | 390 kts | 94° |
| 2026-05-01 08:03 | 42.39366 | 11.59495 | 20603 ft | 387 kts | 124° |
| 2026-05-01 08:03 | 42.37558 | 11.62147 | 20309 ft | 383 kts | 135° |
| 2026-05-01 08:03 | 42.33718 | 11.66901 | 19719 ft | 371 kts | 137° |
| 2026-05-01 08:04 | 42.29975 | 11.71569 | 19256 ft | 366 kts | 136° |
| 2026-05-01 08:04 | 42.26244 | 11.76309 | 19219 ft | 367 kts | 136° |
| 2026-05-01 08:05 | 42.22547 | 11.81024 | 19212 ft | 367 kts | 136° |
| 2026-05-01 08:05 | 42.20697 | 11.83383 | 19211 ft | 367 kts | 136° |
| 2026-05-01 08:05 | 42.18843 | 11.85742 | 19211 ft | 368 kts | 136° |
| 2026-05-01 08:06 | 42.15114 | 11.90483 | 19203 ft | 368 kts | 135° |
| 2026-05-01 08:06 | 42.12080 | 11.95966 | 18453 ft | 364 kts | 114° |
| 2026-05-01 08:07 | 42.09960 | 12.02048 | 17768 ft | 356 kts | 111° |
| 2026-05-01 08:07 | 42.07901 | 12.08040 | 17014 ft | 352 kts | 112° |
| 2026-05-01 08:08 | 42.06854 | 12.11024 | 16628 ft | 349 kts | 112° |
| 2026-05-01 08:08 | 42.04788 | 12.16854 | 15863 ft | 345 kts | 112° |
| 2026-05-01 08:09 | 42.02721 | 12.22654 | 15088 ft | 340 kts | 112° |
| 2026-05-01 08:09 | 42.01702 | 12.25506 | 14705 ft | 338 kts | 112° |
| 2026-05-01 08:09 | 42.00700 | 12.28312 | 14329 ft | 335 kts | 112° |
| 2026-05-01 08:10 | 41.98599 | 12.33671 | 14006 ft | 319 kts | 129° |
| 2026-05-01 08:10 | 41.94750 | 12.36295 | 13481 ft | 309 kts | 166° |
| 2026-05-01 08:11 | 41.90627 | 12.37701 | 12779 ft | 307 kts | 165° |
| 2026-05-01 08:11 | 41.86571 | 12.39296 | 12210 ft | 298 kts | 163° |
| 2026-05-01 08:12 | 41.82686 | 12.40911 | 11771 ft | 286 kts | 162° |
| 2026-05-01 08:12 | 41.80798 | 12.41700 | 11430 ft | 285 kts | 162° |
| 2026-05-01 08:12 | 41.77064 | 12.43260 | 10795 ft | 281 kts | 162° |
| 2026-05-01 08:13 | 41.75186 | 12.44043 | 10488 ft | 278 kts | 162° |
| 2026-05-01 08:13 | 41.73348 | 12.44808 | 10189 ft | 276 kts | 162° |
| 2026-05-01 08:13 | 41.69735 | 12.46311 | 9600 ft | 271 kts | 162° |
| 2026-05-01 08:14 | 41.67956 | 12.47049 | 9308 ft | 268 kts | 162° |
| 2026-05-01 08:14 | 41.66202 | 12.47776 | 9133 ft | 260 kts | 162° |
| 2026-05-01 08:14 | 41.64482 | 12.48486 | 8884 ft | 256 kts | 162° |
| 2026-05-01 08:14 | 41.62790 | 12.49184 | 8544 ft | 256 kts | 162° |
| 2026-05-01 08:15 | 41.61094 | 12.49883 | 8243 ft | 255 kts | 162° |
| 2026-05-01 08:15 | 41.57746 | 12.51261 | 7651 ft | 251 kts | 162° |
| 2026-05-01 08:15 | 41.56090 | 12.51939 | 7279 ft | 248 kts | 162° |
| 2026-05-01 08:16 | 41.54446 | 12.52571 | 6801 ft | 247 kts | 170° |
| 2026-05-01 08:16 | 41.52770 | 12.52330 | 6307 ft | 248 kts | 208° |
| 2026-05-01 08:16 | 41.51566 | 12.50773 | 6026 ft | 241 kts | 243° |
| 2026-05-01 08:16 | 41.51133 | 12.48666 | 5744 ft | 237 kts | 271° |
| 2026-05-01 08:17 | 41.51480 | 12.46539 | 5404 ft | 235 kts | 295° |
| 2026-05-01 08:17 | 41.52213 | 12.44618 | 5100 ft | 235 kts | 298° |
| 2026-05-01 08:17 | 41.52978 | 12.42690 | 4777 ft | 235 kts | 298° |
| 2026-05-01 08:17 | 41.53717 | 12.40772 | 4473 ft | 234 kts | 297° |
| 2026-05-01 08:18 | 41.54568 | 12.38965 | 4283 ft | 227 kts | 318° |
| 2026-05-01 08:18 | 41.57363 | 12.37348 | 3742 ft | 221 kts | 347° |
| 2026-05-01 08:19 | 41.60318 | 12.36315 | 3516 ft | 220 kts | 346° |
| 2026-05-01 08:19 | 41.61768 | 12.35749 | 3500 ft | 208 kts | 344° |
| 2026-05-01 08:19 | 41.63109 | 12.35195 | 3501 ft | 202 kts | 344° |
| 2026-05-01 08:19 | 41.64455 | 12.34627 | 3393 ft | 202 kts | 343° |
| 2026-05-01 08:20 | 41.65799 | 12.34055 | 3138 ft | 202 kts | 344° |
| 2026-05-01 08:20 | 41.67133 | 12.33486 | 2868 ft | 202 kts | 344° |
| 2026-05-01 08:20 | 41.68453 | 12.32926 | 2604 ft | 201 kts | 344° |
| 2026-05-01 08:20 | 41.69760 | 12.32373 | 2432 ft | 193 kts | 344° |
| 2026-05-01 08:21 | 41.71026 | 12.31838 | 2153 ft | 189 kts | 344° |
| 2026-05-01 08:21 | 41.72271 | 12.31314 | 1872 ft | 184 kts | 344° |
| 2026-05-01 08:21 | 41.73450 | 12.30817 | 1610 ft | 173 kts | 345° |
| 2026-05-01 08:21 | 41.74550 | 12.30353 | 1393 ft | 160 kts | 346° |
| 2026-05-01 08:22 | 41.75565 | 12.29927 | 1168 ft | 149 kts | 345° |
| 2026-05-01 08:22 | 41.76527 | 12.29515 | 949 ft | 139 kts | 345° |
| 2026-05-01 08:22 | 41.77433 | 12.29133 | 799 ft | 137 kts | 346° |
| 2026-05-01 08:22 | 41.78342 | 12.28755 | 635 ft | 137 kts | 345° |
| 2026-05-01 08:23 | 41.79240 | 12.28377 | 442 ft | 136 kts | 346° |
| 2026-05-01 08:23 | 41.80144 | 12.28002 | 272 ft | 136 kts | 346° |
| 2026-05-01 08:23 | 41.81042 | 12.27626 | 108 ft | 135 kts | 346° |
| 2026-05-01 08:23 | 41.81926 | 12.27259 | 9 ft | 126 kts | 343° |
| 2026-05-01 08:24 | 41.82616 | 12.26971 | 9 ft | 80 kts | 342° |
| 2026-05-01 08:24 | 41.82965 | 12.26820 | 9 ft | 37 kts | 335° |
| 2026-05-01 08:24 | 41.83143 | 12.26630 | 9 ft | 24 kts | 309° |
| 2026-05-01 08:24 | 41.83234 | 12.26483 | 9 ft | 18 kts | 290° |
| 2026-05-01 08:25 | 41.83172 | 12.26425 | 9 ft | 13 kts | 163° |
| 2026-05-01 08:25 | 41.83072 | 12.26463 | 9 ft | 16 kts | 164° |
| 2026-05-01 08:25 | 41.82957 | 12.26515 | 9 ft | 18 kts | 162° |
| 2026-05-01 08:25 | 41.82830 | 12.26570 | 9 ft | 19 kts | 161° |
| 2026-05-01 08:26 | 41.82703 | 12.26622 | 9 ft | 19 kts | 163° |
| 2026-05-01 08:26 | 41.82564 | 12.26679 | 9 ft | 22 kts | 162° |
| 2026-05-01 08:26 | 41.82410 | 12.26744 | 7 ft | 25 kts | 163° |
| 2026-05-01 08:26 | 41.82234 | 12.26816 | 5 ft | 27 kts | 161° |
| 2026-05-01 08:27 | 41.82059 | 12.26890 | 7 ft | 25 kts | 161° |
| 2026-05-01 08:27 | 41.81895 | 12.26961 | 9 ft | 24 kts | 163° |
| 2026-05-01 08:27 | 41.81735 | 12.27028 | 9 ft | 25 kts | 163° |
| 2026-05-01 08:27 | 41.81551 | 12.27103 | 9 ft | 28 kts | 161° |
| 2026-05-01 08:28 | 41.81366 | 12.27185 | 9 ft | 27 kts | 161° |
| 2026-05-01 08:28 | 41.81185 | 12.27258 | 9 ft | 26 kts | 164° |
| 2026-05-01 08:28 | 41.81016 | 12.27325 | 9 ft | 24 kts | 162° |
| 2026-05-01 08:28 | 41.80858 | 12.27338 | 9 ft | 22 kts | 189° |
| 2026-05-01 08:29 | 41.80713 | 12.27303 | 9 ft | 20 kts | 199° |
| 2026-05-01 08:29 | 41.80637 | 12.27154 | 9 ft | 19 kts | 250° |
| 2026-05-01 08:29 | 41.80589 | 12.26983 | 9 ft | 19 kts | 250° |
| 2026-05-01 08:29 | 41.80543 | 12.26815 | 9 ft | 19 kts | 250° |
| 2026-05-01 08:30 | 41.80497 | 12.26644 | 9 ft | 19 kts | 248° |
| 2026-05-01 08:30 | 41.80453 | 12.26487 | 12 ft | 16 kts | 249° |
| 2026-05-01 08:30 | 41.80412 | 12.26340 | 12 ft | 17 kts | 249° |
| 2026-05-01 08:30 | 41.80371 | 12.26196 | 15 ft | 15 kts | 251° |
| 2026-05-01 08:31 | 41.80306 | 12.26091 | 15 ft | 15 kts | 205° |
| 2026-05-01 08:31 | 41.80206 | 12.26029 | 15 ft | 16 kts | 204° |
| 2026-05-01 08:31 | 41.80101 | 12.25963 | 15 ft | 16 kts | 205° |
| 2026-05-01 08:31 | 41.79995 | 12.25897 | 15 ft | 16 kts | 205° |
| 2026-05-01 08:32 | 41.79894 | 12.25834 | 17 ft | 15 kts | 204° |
| 2026-05-01 08:32 | 41.79810 | 12.25783 | 18 ft | 11 kts | 205° |
| 2026-05-01 08:32 | 41.79750 | 12.25742 | 18 ft | 6 kts | 223° |
| 2026-05-01 08:32 | 41.79757 | 12.25694 | 18 ft | 5 kts | 294° |
| 2026-05-01 08:33 | 41.79765 | 12.25673 | 18 ft | 0 kts | 298° |